Time;durP1;ratioP1;P1;durP2;ratioP2;P2;SDS_P1;SDS_P2;PMS_P1;PMS_P2;Temp;Humidity;BMP_temperature;BMP_pressure;BME280_temperature;BME280_humidity;BME280_pressure;Samples;Min_cycle;Max_cycle;Signal;HPM_P1;HPM_P2
2022/12/23 00:00:09;;;;;;;80.88;35.95;;;;;;;5.53;100.00;99998.31;2081872;28;40582;-76
2022/12/23 00:01:12;;;;;;;84.93;34.17;;;;;;;5.53;100.00;100006.28;2082689;28;20050;-78
2022/12/23 00:02:14;;;;;;;78.40;36.35;;;;;;;5.53;100.00;99995.66;2073392;28;40142;-76
2022/12/23 00:03:16;;;;;;;83.85;36.53;;;;;;;5.53;100.00;100003.63;2073770;28;34718;-75
2022/12/23 00:04:18;;;;;;;78.35;35.33;;;;;;;5.53;100.00;99994.78;2082280;28;37240;-76
2022/12/23 00:05:19;;;;;;;79.30;34.90;;;;;;;5.54;100.00;100004.50;2081921;28;42203;-76
2022/12/23 00:06:21;;;;;;;78.80;33.42;;;;;;;5.55;100.00;99999.16;2082244;28;42775;-76
2022/12/23 00:07:23;;;;;;;81.40;33.33;;;;;;;5.55;100.00;100004.47;2081513;28;40155;-76
2022/12/23 00:08:25;;;;;;;77.20;32.65;;;;;;;5.56;100.00;100000.03;2082288;28;40588;-76
2022/12/23 00:09:27;;;;;;;77.90;32.47;;;;;;;5.55;100.00;99993.84;2073027;28;39752;-75
2022/12/23 00:10:29;;;;;;;77.43;33.97;;;;;;;5.54;100.00;99981.50;2065674;28;41370;-76
2022/12/23 00:11:30;;;;;;;77.45;32.85;;;;;;;5.57;100.00;99993.84;2065369;28;35312;-75
2022/12/23 00:15:21;;;;;;;84.68;34.38;;;;;;;5.57;100.00;99985.88;2074099;28;20035;-75
2022/12/23 00:16:25;;;;;;;78.82;32.80;;;;;;;5.57;100.00;99988.53;2076983;28;40681;-75
2022/12/23 00:17:26;;;;;;;76.97;34.25;;;;;;;5.58;100.00;99992.94;2081796;28;38055;-77
2022/12/23 00:18:28;;;;;;;75.40;31.95;;;;;;;5.59;100.00;99991.16;2081986;28;38366;-75
2022/12/23 00:19:32;;;;;;;77.85;33.33;;;;;;;5.59;100.00;99989.38;2082117;28;40157;-75
2022/12/23 00:20:34;;;;;;;76.65;32.08;;;;;;;5.60;100.00;99998.19;2082006;28;42005;-77
2022/12/23 00:21:35;;;;;;;86.40;35.28;;;;;;;5.61;100.00;100000.81;2082855;28;20044;-75
2022/12/23 00:24:00;;;;;;;89.38;35.58;;;;;;;5.60;100.00;100004.41;2081911;28;37236;-76
2022/12/23 00:25:05;;;;;;;99.50;37.15;;;;;;;5.59;100.00;99999.97;2082111;28;37899;-76
2022/12/23 00:26:23;;;;;;;73.28;32.72;;;;;;;5.60;100.00;99996.44;2081641;28;41745;-76
2022/12/23 00:27:24;;;;;;;83.40;35.38;;;;;;;5.60;100.00;100001.75;2082040;28;39685;-75
2022/12/23 00:28:28;;;;;;;92.22;37.28;;;;;;;5.60;100.00;100007.06;2082766;28;20034;-76
2022/12/23 00:29:30;;;;;;;85.90;34.50;;;;;;;5.62;100.00;100012.34;2082128;28;39764;-76
2022/12/23 00:30:31;;;;;;;72.55;31.65;;;;;;;5.62;100.00;100009.69;2081705;28;38063;-77
2022/12/23 00:31:33;;;;;;;85.03;35.67;;;;;;;5.62;100.00;100015.00;2081776;28;37820;-77
2022/12/23 00:32:35;;;;;;;86.75;33.75;;;;;;;5.62;100.00;100005.25;2082514;28;20160;-77
2022/12/23 00:33:44;;;;;;;87.20;36.00;;;;;;;5.64;100.00;100016.72;2081912;28;39562;-77
2022/12/23 00:34:45;;;;;;;96.47;38.15;;;;;;;5.65;100.00;100012.28;2082050;28;40540;-77
2022/12/23 00:35:48;;;;;;;89.07;38.67;;;;;;;5.64;100.00;100008.75;2082527;28;39865;-77
2022/12/23 00:36:49;;;;;;;88.72;38.15;;;;;;;5.64;100.00;100014.06;2081913;28;40492;-76
2022/12/23 00:37:51;;;;;;;82.75;36.05;;;;;;;5.64;100.00;100011.41;2082681;28;21504;-76
2022/12/23 00:42:55;;;;;;;;;;;;;;;5.65;100.00;100007.84;2082320;28;39741;-76
2022/12/23 00:43:57;;;;;;;78.80;33.33;;;;;;;5.65;100.00;100010.53;2082004;28;40568;-76
2022/12/23 00:45:14;;;;;;;90.60;35.03;;;;;;;5.64;100.00;100008.75;2081985;28;39703;-76
2022/12/23 00:46:18;;;;;;;72.47;31.48;;;;;;;5.64;100.00;100011.41;2081933;28;38035;-76
2022/12/23 00:50:03;;;;;;;;;;;;;;;5.63;100.00;99995.50;2082294;28;41715;-76
2022/12/23 00:51:05;;;;;;;91.90;35.08;;;;;;;5.62;100.00;99996.41;2081914;28;42393;-78
2022/12/23 00:52:11;;;;;;;85.85;34.67;;;;;;;5.62;100.00;99999.94;2081929;28;37592;-78
2022/12/23 00:53:12;;;;;;;84.75;35.25;;;;;;;5.62;100.00;100002.59;2081689;28;41954;-78
2022/12/23 00:54:15;;;;;;;86.53;34.53;;;;;;;5.62;100.00;100005.25;2081961;28;42451;-78
2022/12/23 00:55:16;;;;;;;90.45;36.38;;;;;;;5.62;100.00;100004.38;2081434;28;40455;-78
2022/12/23 00:56:18;;;;;;;89.05;36.65;;;;;;;5.62;100.00;100005.25;2081878;28;41557;-78
2022/12/23 00:57:20;;;;;;;93.57;38.45;;;;;;;5.63;100.00;100009.63;2082058;28;20046;-77
2022/12/23 00:58:21;;;;;;;107.88;39.78;;;;;;;5.64;100.00;100011.41;2081973;28;34102;-77
2022/12/23 00:59:26;;;;;;;83.97;33.88;;;;;;;5.63;100.00;100001.66;2082151;28;41030;-81
2022/12/23 01:05:58;;;;;;;81.22;31.88;;;;;;;5.66;100.00;100006.94;2081594;28;42616;-77
2022/12/23 01:07:01;;;;;;;78.68;33.40;;;;;;;5.66;100.00;100009.59;2082176;28;39411;-77
2022/12/23 01:08:08;;;;;;;94.47;35.83;;;;;;;5.66;100.00;100009.59;2080058;28;44256;-77
2022/12/23 01:09:09;;;;;;;85.50;34.88;;;;;;;5.65;100.00;100010.53;2080408;28;37481;-77
2022/12/23 01:10:11;;;;;;;86.65;35.83;;;;;;;5.66;100.00;100009.59;2080318;28;39223;-77
2022/12/23 01:11:13;;;;;;;90.45;35.90;;;;;;;5.66;100.00;100012.25;2080652;28;38212;-77
2022/12/23 01:12:14;;;;;;;99.00;38.58;;;;;;;5.67;100.00;100011.34;2080469;28;36523;-76
2022/12/23 01:13:16;;;;;;;98.18;38.83;;;;;;;5.68;100.00;100006.91;2081179;28;38861;-77
2022/12/23 01:14:18;;;;;;;98.00;37.50;;;;;;;5.68;100.00;100004.25;2079765;28;40879;-77
2022/12/23 01:15:20;;;;;;;94.05;38.08;;;;;;;5.69;100.00;100006.91;2071524;28;39322;-77
2022/12/23 01:16:22;;;;;;;101.80;40.38;;;;;;;5.69;100.00;100006.91;2072115;28;26730;-76
2022/12/23 01:17:23;;;;;;;100.05;40.80;;;;;;;5.70;100.00;100010.41;2081104;28;22609;-78
2022/12/23 01:18:25;;;;;;;103.60;39.75;;;;;;;5.71;100.00;100005.06;2080451;28;41405;-76
2022/12/23 01:19:27;;;;;;;91.22;36.88;;;;;;;5.70;100.00;100008.63;2080026;28;39925;-76
2022/12/23 01:20:31;;;;;;;94.72;38.13;;;;;;;5.72;100.00;100012.16;2080452;28;38648;-76
2022/12/23 01:21:33;;;;;;;87.63;36.00;;;;;;;5.72;100.00;100014.81;2080261;28;39425;-76
2022/12/23 01:22:35;;;;;;;113.57;38.30;;;;;;;5.73;100.00;100013.88;2080459;28;40368;-76
2022/12/23 01:23:40;;;;;;;89.95;35.45;;;;;;;5.74;100.00;100012.09;2080418;28;40286;-76
2022/12/23 01:24:41;;;;;;;86.07;34.17;;;;;;;5.72;100.00;100004.19;2080194;28;38787;-76
2022/12/23 01:25:43;;;;;;;99.32;40.28;;;;;;;5.74;100.00;100001.47;2080991;28;20966;-76
2022/12/23 01:26:45;;;;;;;103.90;39.22;;;;;;;5.74;100.00;99999.72;2071373;28;41098;-76
2022/12/23 01:27:46;;;;;;;102.18;39.40;;;;;;;5.72;100.00;100012.16;2071540;28;39236;-76
2022/12/23 01:28:53;;;;;;;113.75;38.38;;;;;;;5.75;100.00;100003.25;2079705;28;37800;-75
2022/12/23 01:29:55;;;;;;;90.63;37.05;;;;;;;5.75;100.00;100011.22;2071876;28;40916;-76
2022/12/23 01:30:59;;;;;;;94.35;37.03;;;;;;;5.75;100.00;100011.22;2072450;28;20053;-75
2022/12/23 01:32:01;;;;;;;87.85;35.45;;;;;;;5.74;100.00;100010.34;2071416;28;36608;-75
2022/12/23 01:33:03;;;;;;;93.93;37.65;;;;;;;5.77;100.00;100011.19;2071766;28;37390;-75
2022/12/23 01:34:05;;;;;;;84.05;35.67;;;;;;;5.78;100.00;100007.59;2080429;28;39089;-75
2022/12/23 01:35:09;;;;;;;95.32;37.88;;;;;;;5.78;100.00;100016.47;2080136;28;36280;-75
2022/12/23 01:36:11;;;;;;;99.95;40.28;;;;;;;5.79;100.00;100012.03;2081103;28;20904;-75
2022/12/23 01:37:13;;;;;;;90.60;37.28;;;;;;;5.78;100.00;100020.88;2080024;28;42046;-76
2022/12/23 01:38:15;;;;;;;86.93;36.38;;;;;;;5.78;100.00;100021.78;2080451;28;37290;-75
2022/12/23 01:39:17;;;;;;;68.75;31.20;;;;;;;5.78;100.00;100026.19;2080073;28;38473;-76
2022/12/23 01:40:19;;;;;;;87.95;34.55;;;;;;;5.77;100.00;100024.47;2079683;28;40254;-75
2022/12/23 01:42:48;;;;;;;84.22;35.47;;;;;;;5.78;100.00;100029.75;2079756;28;37910;-76
2022/12/23 01:43:51;;;;;;;86.03;36.33;;;;;;;5.78;100.00;100032.41;2080363;28;40851;-76
2022/12/23 01:45:00;;;;;;;85.03;35.15;;;;;;;5.79;100.00;100033.28;2080117;28;38037;-76
2022/12/23 01:46:02;;;;;;;81.13;33.22;;;;;;;5.79;100.00;100036.81;2072500;28;20038;-75
2022/12/23 01:47:11;;;;;;;78.70;30.65;;;;;;;5.80;100.00;100035.06;2072491;28;36811;-75
2022/12/23 01:48:29;;;;;;;80.85;33.90;;;;;;;5.80;100.00;100035.06;2080618;28;39467;-77
2022/12/23 01:49:31;;;;;;;80.55;34.70;;;;;;;5.79;100.00;100026.19;2080092;28;38770;-77
2022/12/23 01:50:39;;;;;;;84.70;33.85;;;;;;;5.79;100.00;100022.66;2081252;28;20042;-75
2022/12/23 01:51:41;;;;;;;94.38;33.22;;;;;;;5.79;100.00;100034.16;2080023;28;42879;-76
2022/12/23 01:52:54;;;;;;;86.03;33.03;;;;;;;5.79;100.00;100030.63;2080482;28;38474;-76
2022/12/23 01:54:01;;;;;;;73.30;32.58;;;;;;;5.79;100.00;100027.97;2072165;28;20847;-76
2022/12/23 01:55:03;;;;;;;87.53;33.97;;;;;;;5.79;100.00;100033.28;2065294;28;41483;-76
2022/12/23 01:56:18;;;;;;;75.97;32.85;;;;;;;5.80;100.00;100035.06;2071483;28;39649;-77
2022/12/23 01:57:20;;;;;;;81.07;32.58;;;;;;;5.79;100.00;100033.28;2080216;28;34467;-75
2022/12/23 01:58:30;;;;;;;74.00;31.23;;;;;;;5.78;100.00;100040.38;2071286;28;39080;-74
2022/12/23 02:03:42;;;;;;;87.07;34.65;;;;;;;5.79;100.00;100035.94;2080198;28;36723;-77
2022/12/23 02:04:48;;;;;;;73.18;30.73;;;;;;;5.79;100.00;100036.81;2080028;28;42187;-75
2022/12/23 02:05:51;;;;;;;78.13;35.35;;;;;;;5.80;100.00;100043.88;2071559;28;38629;-78
2022/12/23 02:09:38;;;;;;;86.75;34.88;;;;;;;5.79;100.00;100044.78;2080686;28;26999;-77
2022/12/23 02:11:11;;;;;;;95.07;38.53;;;;;;;5.80;100.00;100053.66;2080399;28;38252;-77
2022/12/23 02:13:01;;;;;;;84.05;34.83;;;;;;;5.79;100.00;100060.72;2080777;28;20854;-76
2022/12/23 02:16:17;;;;;;;80.00;31.33;;;;;;;5.80;100.00;100065.13;2071181;28;39680;-77
2022/12/23 02:17:31;;;;;;;79.53;32.13;;;;;;;5.80;100.00;100066.91;2079677;28;43577;-77
2022/12/23 02:19:07;;;;;;;91.93;34.60;;;;;;;5.80;100.00;100066.91;2080285;28;36930;-77
2022/12/23 02:20:34;;;;;;;79.60;32.90;;;;;;;5.79;100.00;100068.69;2070706;28;39918;-77
2022/12/23 02:22:22;;;;;;;91.15;36.53;;;;;;;5.79;100.00;100065.16;2079682;28;37492;-75
2022/12/23 02:24:01;;;;;;;71.22;30.27;;;;;;;5.78;100.00;100058.97;2071012;28;39762;-74
2022/12/23 02:25:44;;;;;;;92.00;36.10;;;;;;;5.77;100.00;100066.97;2079610;28;39667;-75
2022/12/23 02:27:10;;;;;;;91.60;36.35;;;;;;;5.77;100.00;100061.66;2080292;28;35249;-76
2022/12/23 02:28:48;;;;;;;91.82;35.67;;;;;;;5.76;100.00;100063.44;2080060;28;40425;-76
2022/12/23 02:30:16;;;;;;;92.50;35.85;;;;;;;5.76;100.00;100066.09;2080218;28;38372;-76
2022/12/23 02:31:28;;;;;;;77.05;30.55;;;;;;;5.77;100.00;100064.31;2070840;28;37458;-76
2022/12/23 02:32:47;;;;;;;91.88;36.28;;;;;;;5.77;100.00;100067.84;2068037;28;40198;-77
2022/12/23 02:34:12;;;;;;;83.15;34.63;;;;;;;5.77;100.00;100065.19;2066139;28;42039;-76
2022/12/23 02:35:51;;;;;;;99.40;37.03;;;;;;;5.77;100.00;100066.97;2075911;28;41123;-76
2022/12/23 02:36:56;;;;;;;91.38;34.88;;;;;;;5.77;100.00;100073.16;2079903;28;40083;-76
2022/12/23 02:38:36;;;;;;;104.00;39.67;;;;;;;5.76;100.00;100071.41;2071158;28;40157;-76
2022/12/23 02:39:49;;;;;;;101.88;39.85;;;;;;;5.76;100.00;100074.06;2077508;28;26628;-76
2022/12/23 02:41:20;;;;;;;101.18;37.75;;;;;;;5.76;100.00;100073.16;2080095;28;39073;-77
2022/12/23 02:42:35;;;;;;;107.30;39.03;;;;;;;5.74;100.00;100070.53;2080130;28;41505;-77
2022/12/23 02:44:17;;;;;;;86.15;34.88;;;;;;;5.74;100.00;100070.53;2071346;28;21002;-75
2022/12/23 02:45:18;;;;;;;100.10;39.58;;;;;;;5.73;100.00;100060.84;2070117;28;39280;-75
2022/12/23 02:46:55;;;;;;;92.57;37.53;;;;;;;5.73;100.00;100064.34;2076608;28;20150;-75
2022/12/23 02:48:11;;;;;;;95.47;37.33;;;;;;;5.73;100.00;100069.66;2070753;28;40843;-76
2022/12/23 02:49:26;;;;;;;95.38;37.55;;;;;;;5.72;100.00;100067.03;2069382;28;22605;-76
2022/12/23 02:50:36;;;;;;;88.32;36.42;;;;;;;5.71;100.00;100071.47;2067549;28;20780;-75
2022/12/23 02:51:46;;;;;;;81.00;32.88;;;;;;;5.72;100.00;100077.66;2065776;28;35687;-76
2022/12/23 02:52:51;;;;;;;;;;;;;;;5.71;100.00;100082.09;2073362;28;40425;-76
2022/12/23 02:53:57;;;;;;;92.55;34.88;;;;;;;5.70;100.00;100077.69;2079812;28;43904;-76
2022/12/23 02:55:14;;;;;;;82.93;34.65;;;;;;;5.72;100.00;100082.97;2071048;28;41216;-76
2022/12/23 02:56:19;;;;;;;88.97;34.88;;;;;;;5.73;100.00;100090.03;2065342;28;40551;-76
2022/12/23 02:57:28;;;;;;;87.45;35.17;;;;;;;5.73;100.00;100082.94;2065183;28;38966;-76
2022/12/23 02:58:38;;;;;;;82.28;33.30;;;;;;;5.72;100.00;100091.84;2064343;28;44532;-76
2022/12/23 02:59:49;;;;;;;87.00;36.65;;;;;;;5.73;100.00;100084.72;2065379;28;40349;-74
2022/12/23 03:00:53;;;;;;;83.90;34.45;;;;;;;5.72;100.00;100090.94;2070415;28;42190;-75
2022/12/23 03:01:56;;;;;;;92.28;35.08;;;;;;;5.71;100.00;100092.72;2071125;28;39233;-76
2022/12/23 03:02:58;;;;;;;75.10;32.10;;;;;;;5.73;100.00;100098.88;2062586;28;38780;-76
2022/12/23 03:04:00;;;;;;;87.70;37.60;;;;;;;5.72;100.00;100097.16;2063233;28;38359;-75
2022/12/23 03:05:02;;;;;;;79.75;33.05;;;;;;;5.74;100.00;100102.41;2071406;28;37150;-76
2022/12/23 03:06:19;;;;;;;93.35;35.38;;;;;;;5.73;100.00;100105.97;2071004;28;42223;-76
2022/12/23 03:07:31;;;;;;;86.47;33.70;;;;;;;5.74;100.00;100110.38;2072489;28;20045;-75
2022/12/23 03:08:42;;;;;;;99.53;39.00;;;;;;;5.73;100.00;100104.19;2071753;28;36723;-75
2022/12/23 03:10:33;;;;;;;85.38;33.83;;;;;;;5.73;100.00;100117.47;2062787;28;38671;-76
2022/12/23 03:12:15;;;;;;;84.28;33.05;;;;;;;5.73;100.00;100113.94;2070844;28;40562;-76
2022/12/23 03:13:26;;;;;;;87.82;35.58;;;;;;;5.73;100.00;100111.28;2079594;28;20907;-74
2022/12/23 03:14:59;;;;;;;83.47;33.60;;;;;;;5.73;100.00;100114.81;2078815;28;37712;-74
2022/12/23 03:16:26;;;;;;;86.38;34.45;;;;;;;5.72;100.00;100110.44;2079292;28;41183;-77
2022/12/23 03:17:49;;;;;;;85.47;31.63;;;;;;;5.71;100.00;100111.31;2072680;28;20038;-75
2022/12/23 03:19:03;;;;;;;91.43;35.92;;;;;;;5.71;100.00;100116.63;2076393;28;41524;-77
2022/12/23 03:20:34;;;;;;;92.72;36.08;;;;;;;5.70;100.00;100120.16;2080642;28;20168;-77
2022/12/23 03:22:09;;;;;;;82.45;33.47;;;;;;;5.71;100.00;100116.63;2080457;28;20085;-76
2022/12/23 03:23:26;;;;;;;90.13;36.67;;;;;;;5.70;100.00;100120.16;2079359;28;42954;-76
2022/12/23 03:24:46;;;;;;;89.60;36.25;;;;;;;5.71;100.00;100121.94;2079780;28;40356;-76
2022/12/23 03:26:02;;;;;;;88.97;35.97;;;;;;;5.69;100.00;100117.56;2079380;28;41104;-75
2022/12/23 03:27:15;;;;;;;86.43;34.70;;;;;;;5.68;100.00;100124.63;2079647;28;20045;-75
2022/12/23 03:28:24;;;;;;;86.72;36.70;;;;;;;5.67;100.00;100125.56;2079813;28;40515;-76
2022/12/23 03:29:34;;;;;;;92.60;35.95;;;;;;;5.67;100.00;100117.59;2079802;28;35882;-76
2022/12/23 03:30:39;;;;;;;91.15;37.72;;;;;;;5.67;100.00;100122.91;2079750;28;37054;-76
2022/12/23 03:31:42;;;;;;;86.68;36.47;;;;;;;5.66;100.00;100128.22;2077921;28;41495;-76
2022/12/23 03:32:55;;;;;;;82.63;34.00;;;;;;;5.67;100.00;100125.56;2079033;28;36649;-76
2022/12/23 03:34:27;;;;;;;93.55;38.30;;;;;;;5.66;100.00;100129.09;2079660;28;37723;-76
2022/12/23 03:35:39;;;;;;;75.18;30.83;;;;;;;5.65;100.00;100130.00;2077121;28;39816;-76
2022/12/23 03:36:48;;;;;;;90.45;35.97;;;;;;;5.68;100.00;100137.03;2074354;28;20045;-76
2022/12/23 03:37:55;;;;;;;86.90;35.25;;;;;;;5.67;100.00;100130.88;2072380;28;43737;-77
2022/12/23 03:38:57;;;;;;;88.93;35.70;;;;;;;5.66;100.00;100129.09;2070973;28;36494;-75
2022/12/23 03:40:18;;;;;;;93.57;36.53;;;;;;;5.66;100.00;100131.75;2071811;28;36617;-78
2022/12/23 03:41:52;;;;;;;86.57;35.05;;;;;;;5.66;100.00;100125.56;2079553;28;43895;-77
2022/12/23 03:43:03;;;;;;;86.45;34.50;;;;;;;5.65;100.00;100122.06;2069970;28;39127;-77
2022/12/23 03:44:15;;;;;;;91.38;35.80;;;;;;;5.65;100.00;100121.16;2071287;28;43252;-76
2022/12/23 03:45:25;;;;;;;78.53;34.05;;;;;;;5.64;100.00;100117.63;2062792;28;37263;-76
2022/12/23 03:47:13;;;;;;;92.03;36.08;;;;;;;5.65;100.00;100121.16;2066574;28;39388;-76
2022/12/23 03:48:35;;;;;;;88.35;35.50;;;;;;;5.67;100.00;100122.00;2053696;28;34811;-76
2022/12/23 03:49:46;;;;;;;96.95;36.22;;;;;;;5.67;100.00;100122.91;2070318;28;34970;-78
2022/12/23 03:51:05;;;;;;;98.60;37.80;;;;;;;5.66;100.00;100122.91;2062515;28;36464;-75
2022/12/23 03:52:13;;;;;;;88.50;34.67;;;;;;;5.67;100.00;100128.22;2066266;28;42943;-78
2022/12/23 03:53:33;;;;;;;87.35;34.08;;;;;;;5.66;100.00;100123.78;2063104;28;27067;-77
2022/12/23 03:54:43;;;;;;;90.22;35.47;;;;;;;5.66;100.00;100122.91;2065907;28;44135;-75
2022/12/23 03:55:53;;;;;;;85.47;33.17;;;;;;;5.67;100.00;100125.56;2063830;28;20039;-77
2022/12/23 03:57:02;;;;;;;87.07;31.88;;;;;;;5.65;100.00;100130.00;2064518;28;38869;-76
2022/12/23 03:58:27;;;;;;;91.88;35.60;;;;;;;5.65;100.00;100135.34;2071103;28;39966;-75
2022/12/23 03:59:35;;;;;;;88.75;33.35;;;;;;;5.65;100.00;100140.63;2054247;28;40267;-75
2022/12/23 04:00:50;;;;;;;82.20;32.38;;;;;;;5.65;100.00;100142.41;2050685;28;45549;-77
2022/12/23 04:02:10;;;;;;;96.15;36.55;;;;;;;5.65;100.00;100145.06;2065324;28;38835;-77
2022/12/23 04:03:40;;;;;;;90.30;34.05;;;;;;;5.64;100.00;100149.50;2063036;28;35142;-76
2022/12/23 04:05:22;;;;;;;105.20;39.10;;;;;;;5.64;100.00;100151.28;2067634;28;41948;-76
2022/12/23 04:06:29;;;;;;;96.93;35.55;;;;;;;5.64;100.00;100151.28;2070959;28;39137;-77
2022/12/23 04:07:39;;;;;;;98.63;38.00;;;;;;;5.63;100.00;100161.00;2062717;28;37191;-76
2022/12/23 04:08:42;;;;;;;104.82;37.42;;;;;;;5.64;100.00;100164.56;2064874;28;34883;-77
2022/12/23 04:09:46;;;;;;;95.22;35.97;;;;;;;5.63;100.00;100166.31;2062290;28;39490;-76
2022/12/23 04:10:48;;;;;;;96.65;36.88;;;;;;;5.62;100.00;100169.03;2062817;28;43436;-76
2022/12/23 04:11:50;;;;;;;99.50;37.40;;;;;;;5.61;100.00;100168.13;2062979;28;34764;-76
2022/12/23 04:12:53;;;;;;;105.57;38.45;;;;;;;5.60;100.00;100166.38;2062620;28;35792;-76
2022/12/23 04:13:54;;;;;;;96.45;38.08;;;;;;;5.59;100.00;100175.25;2062626;28;37721;-76
2022/12/23 04:14:59;;;;;;;102.25;38.95;;;;;;;5.60;100.00;100174.34;2062887;28;39655;-73
2022/12/23 04:16:02;;;;;;;110.22;38.88;;;;;;;5.59;100.00;100169.94;2070980;28;41664;-76
2022/12/23 04:17:04;;;;;;;99.80;37.97;;;;;;;5.58;100.00;100178.81;2079178;28;36614;-75
2022/12/23 04:18:07;;;;;;;102.07;38.05;;;;;;;5.59;100.00;100174.38;2080106;28;20049;-75
2022/12/23 04:19:08;;;;;;;110.93;37.53;;;;;;;5.59;100.00;100175.25;2079011;28;42742;-75
2022/12/23 04:20:10;;;;;;;99.35;37.72;;;;;;;5.58;100.00;100172.59;2079339;28;34421;-76
2022/12/23 04:21:12;;;;;;;102.68;37.55;;;;;;;5.58;100.00;100176.16;2079394;28;37098;-76
2022/12/23 04:22:14;;;;;;;109.78;40.10;;;;;;;5.58;100.00;100178.81;2079215;28;37877;-74
2022/12/23 04:23:18;;;;;;;116.15;40.30;;;;;;;5.57;100.00;100174.38;2079801;28;20925;-73
2022/12/23 04:24:22;;;;;;;120.70;40.08;;;;;;;5.57;100.00;100177.03;2079045;28;39371;-76
2022/12/23 04:25:25;;;;;;;102.80;38.40;;;;;;;5.57;100.00;100171.72;2080508;28;20771;-75
2022/12/23 04:26:26;;;;;;;105.38;37.13;;;;;;;5.58;100.00;100167.28;2079250;28;39784;-75
2022/12/23 04:27:28;;;;;;;115.00;38.00;;;;;;;5.56;100.00;100167.31;2079650;28;40816;-75
2022/12/23 04:28:30;;;;;;;111.90;38.83;;;;;;;5.58;100.00;100173.50;2078781;28;39197;-76
2022/12/23 04:29:31;;;;;;;113.50;37.63;;;;;;;5.57;100.00;100171.72;2079117;28;41154;-75
2022/12/23 04:30:34;;;;;;;117.40;39.05;;;;;;;5.59;100.00;100171.72;2079392;28;37608;-76
2022/12/23 04:31:36;;;;;;;105.80;37.40;;;;;;;5.57;100.00;100169.06;2071074;28;20034;-75
2022/12/23 04:32:39;;;;;;;121.95;39.88;;;;;;;5.57;100.00;100168.22;2070421;28;36848;-76
2022/12/23 04:33:41;;;;;;;118.80;39.38;;;;;;;5.58;100.00;100173.50;2080089;28;20128;-75
2022/12/23 04:34:43;;;;;;;106.22;36.17;;;;;;;5.58;100.00;100173.50;2079787;28;20861;-76
2022/12/23 04:35:44;;;;;;;118.38;39.22;;;;;;;5.59;100.00;100175.25;2078735;28;39891;-76
2022/12/23 04:36:48;;;;;;;105.93;37.90;;;;;;;5.58;100.00;100178.81;2079550;28;21008;-76
2022/12/23 04:37:50;;;;;;;110.63;37.80;;;;;;;5.58;100.00;100183.22;2078931;28;32598;-76
2022/12/23 04:38:52;;;;;;;117.38;38.72;;;;;;;5.57;100.00;100179.69;2079183;28;40580;-76
2022/12/23 04:39:54;;;;;;;111.53;38.38;;;;;;;5.56;100.00;100185.91;2078996;28;38382;-76
2022/12/23 04:40:56;;;;;;;123.97;40.38;;;;;;;5.54;100.00;100185.03;2079270;28;37762;-76
2022/12/23 04:41:58;;;;;;;101.43;36.22;;;;;;;5.54;100.00;100175.31;2078648;28;42148;-76
2022/12/23 04:42:59;;;;;;;110.78;38.95;;;;;;;5.55;100.00;100192.13;2080173;28;20042;-76
2022/12/23 04:44:01;;;;;;;111.15;37.58;;;;;;;5.54;100.00;100182.38;2080619;28;38262;-76
2022/12/23 04:45:03;;;;;;;106.20;36.17;;;;;;;5.54;100.00;100188.59;2080717;28;37459;-76
2022/12/23 04:46:08;;;;;;;104.60;36.97;;;;;;;5.54;100.00;100183.28;2081536;28;20050;-75
2022/12/23 04:47:12;;;;;;;119.28;37.80;;;;;;;5.53;100.00;100186.81;2080393;28;40456;-76
2022/12/23 04:48:14;;;;;;;109.72;36.95;;;;;;;5.52;100.00;100189.50;2081055;28;20056;-76
2022/12/23 04:49:15;;;;;;;106.03;37.03;;;;;;;5.52;100.00;100189.50;2081023;28;42014;-76
2022/12/23 04:50:17;;;;;;;107.03;37.67;;;;;;;5.51;100.00;100185.97;2080581;28;39946;-76
2022/12/23 04:51:19;;;;;;;106.57;36.00;;;;;;;5.51;100.00;100185.97;2080787;28;37885;-76
2022/12/23 04:52:21;;;;;;;117.28;40.03;;;;;;;5.51;100.00;100190.41;2080466;28;37449;-76
2022/12/23 04:53:25;;;;;;;114.38;38.50;;;;;;;5.51;100.00;100195.72;2081191;28;20082;-77
2022/12/23 04:54:26;;;;;;;112.72;39.22;;;;;;;5.50;100.00;100199.28;2080436;28;41075;-76
2022/12/23 04:55:28;;;;;;;104.57;37.63;;;;;;;5.49;100.00;100198.41;2080355;28;38300;-76
2022/12/23 04:56:30;;;;;;;108.18;37.15;;;;;;;5.50;100.00;100202.78;2080344;28;39189;-76
2022/12/23 04:57:31;;;;;;;113.53;37.90;;;;;;;5.48;100.00;100201.94;2080228;28;42923;-76
2022/12/23 04:58:33;;;;;;;118.00;37.80;;;;;;;5.48;100.00;100203.72;2081308;28;20185;-75
2022/12/23 04:59:35;;;;;;;114.22;38.08;;;;;;;5.48;100.00;100201.06;2081166;28;23126;-75
2022/12/23 05:00:36;;;;;;;117.10;39.33;;;;;;;5.48;100.00;100203.72;2080523;28;41785;-75
2022/12/23 05:01:44;;;;;;;105.63;37.60;;;;;;;5.48;100.00;100195.75;2080494;28;38292;-75
2022/12/23 05:02:45;;;;;;;114.55;39.13;;;;;;;5.47;100.00;100204.63;2080650;28;35438;-75
2022/12/23 05:03:47;;;;;;;116.10;38.90;;;;;;;5.46;100.00;100205.53;2080749;28;31504;-75
2022/12/23 05:04:49;;;;;;;118.90;39.97;;;;;;;5.45;100.00;100201.09;2081200;28;20034;-75
2022/12/23 05:05:51;;;;;;;118.70;37.40;;;;;;;5.46;100.00;100200.22;2080576;28;40172;-75
2022/12/23 05:06:52;;;;;;;115.20;38.25;;;;;;;5.45;100.00;100198.47;2080431;28;38593;-75
2022/12/23 05:08:04;;;;;;;114.75;39.60;;;;;;;5.45;100.00;100193.16;2080404;28;36488;-77
2022/12/23 05:09:06;;;;;;;107.00;38.28;;;;;;;5.43;100.00;100201.13;2072269;28;27600;-75
2022/12/23 05:10:09;;;;;;;114.82;39.67;;;;;;;5.42;100.00;100194.06;2073067;28;20113;-78
2022/12/23 05:11:11;;;;;;;119.35;41.60;;;;;;;5.42;100.00;100193.19;2081676;28;32835;-77
2022/12/23 05:12:12;;;;;;;106.75;35.55;;;;;;;5.40;100.00;100197.63;2071538;28;38222;-76
2022/12/23 05:13:14;;;;;;;110.38;36.72;;;;;;;5.37;100.00;100195.91;2071855;28;34750;-74
2022/12/23 05:14:18;;;;;;;100.13;33.90;;;;;;;5.37;100.00;100200.34;2080455;28;39391;-75
2022/12/23 05:15:20;;;;;;;116.25;38.05;;;;;;;5.35;100.00;100201.25;2081111;28;20594;-75
2022/12/23 05:16:22;;;;;;;114.60;39.72;;;;;;;5.34;100.00;100207.44;2080383;28;40869;-75
2022/12/23 05:17:23;;;;;;;110.85;37.63;;;;;;;5.33;100.00;100199.53;2079963;28;39831;-74
2022/12/23 05:18:25;;;;;;;121.82;40.22;;;;;;;5.34;100.00;100196.81;2080515;28;38287;-75
2022/12/23 05:19:27;;;;;;;116.60;39.55;;;;;;;5.34;100.00;100201.25;2080689;28;32813;-74
2022/12/23 05:20:31;;;;;;;120.75;40.70;;;;;;;5.34;100.00;100204.78;2080405;28;41361;-75
2022/12/23 05:21:32;;;;;;;127.68;40.83;;;;;;;5.33;100.00;100204.81;2080394;28;35566;-75
2022/12/23 05:22:34;;;;;;;121.50;38.40;;;;;;;5.34;100.00;100206.56;2080033;28;27242;-75
2022/12/23 05:23:36;;;;;;;114.00;35.95;;;;;;;5.32;100.00;100203.94;2079726;28;41581;-75
2022/12/23 05:24:38;;;;;;;120.25;38.00;;;;;;;5.31;100.00;100201.28;2080122;28;35764;-76
2022/12/23 05:25:42;;;;;;;111.35;35.70;;;;;;;5.30;100.00;100208.38;2080066;28;42581;-76
2022/12/23 05:26:47;;;;;;;109.30;36.72;;;;;;;5.29;100.00;100204.00;2079986;28;38353;-76
2022/12/23 05:27:52;;;;;;;117.70;38.05;;;;;;;5.28;100.00;100207.53;2080767;28;20080;-76
2022/12/23 05:28:54;;;;;;;126.68;38.53;;;;;;;5.27;100.00;100205.75;2080025;28;38905;-75
2022/12/23 05:29:56;;;;;;;126.57;39.67;;;;;;;5.26;100.00;100201.38;2080274;28;35554;-77
2022/12/23 05:31:06;;;;;;;115.78;36.22;;;;;;;5.25;100.00;100202.25;2071020;28;42112;-75
2022/12/23 05:32:08;;;;;;;140.23;42.72;;;;;;;5.25;100.00;100201.38;2064692;28;38786;-76
2022/12/23 05:33:09;;;;;;;129.27;41.00;;;;;;;5.24;100.00;100197.84;2072723;28;38383;-75
2022/12/23 05:34:11;;;;;;;118.60;36.80;;;;;;;5.22;100.00;100196.97;2072129;28;33079;-77
2022/12/23 05:35:15;;;;;;;141.35;41.80;;;;;;;5.23;100.00;100193.44;2071827;28;38434;-75